createdAt,value
2022-12-06T00:00:03.176Z,100676.97
2022-12-06T00:02:31.024Z,100688.31
2022-12-06T00:05:00.183Z,100679.69
2022-12-06T00:07:27.988Z,100680.72
2022-12-06T00:09:55.706Z,100687.78
2022-12-06T00:12:23.629Z,100686.13
2022-12-06T00:14:51.379Z,100687.22
2022-12-06T00:17:19.113Z,100687.16
2022-12-06T00:19:46.849Z,100686.44
2022-12-06T00:22:15.961Z,100689.09
2022-12-06T00:24:43.686Z,100683.81
2022-12-06T00:27:11.356Z,100682.97
2022-12-06T00:29:39.137Z,100681.34
2022-12-06T00:32:06.984Z,100684.91
2022-12-06T00:34:34.873Z,100681.34
2022-12-06T00:37:02.627Z,100676.13
2022-12-06T00:39:31.759Z,100675.19
2022-12-06T00:41:59.492Z,100671.63
2022-12-06T00:44:27.178Z,100674.28
2022-12-06T00:46:54.927Z,100669.84
2022-12-06T00:49:22.572Z,100672.47
2022-12-06T00:51:50.356Z,100662.78
2022-12-06T00:54:18.098Z,100660.22
2022-12-06T00:56:47.203Z,100667.19
2022-12-06T00:59:14.942Z,100662.78
2022-12-06T01:01:42.838Z,100662.78
2022-12-06T01:04:10.744Z,100663.72
2022-12-06T01:06:38.842Z,100649.69
2022-12-06T01:09:08.364Z,100656.44
2022-12-06T01:11:36.145Z,100657.41
2022-12-06T01:14:05.597Z,100658.75
2022-12-06T01:16:33.611Z,100655.47
2022-12-06T01:19:04.813Z,100661.47
2022-12-06T01:21:32.779Z,100661.28
2022-12-06T01:24:00.559Z,100659.75
2022-12-06T01:26:31.646Z,100666.88
2022-12-06T01:29:00.208Z,100665.19
2022-12-06T01:31:37.079Z,100664.41
2022-12-06T01:34:05.329Z,100667.13
2022-12-06T01:36:34.120Z,100673.19
2022-12-06T01:39:06.557Z,100674.97
2022-12-06T01:41:34.464Z,100672.41
2022-12-06T01:44:02.416Z,100677.75
2022-12-06T01:46:34.945Z,100675.19
2022-12-06T01:49:10.754Z,100668.34
2022-12-06T01:51:39.896Z,100667.50
2022-12-06T01:54:11.884Z,100668.28
2022-12-06T01:56:41.109Z,100670.09
2022-12-06T01:59:10.474Z,100659.59
2022-12-06T02:01:41.423Z,100661.22
2022-12-06T02:04:10.229Z,100655.34
2022-12-06T02:06:40.293Z,100659.66
2022-12-06T02:09:09.971Z,100651.09
2022-12-06T02:11:38.384Z,100658.81
2022-12-06T02:14:08.360Z,100656.38
2022-12-06T02:16:50.846Z,100661.72
2022-12-06T02:19:58.567Z,100655.66
2022-12-06T02:22:36.910Z,100654.94
2022-12-06T02:25:40.653Z,100655.09
2022-12-06T02:28:39.850Z,100646.50
2022-12-06T02:31:14.160Z,100652.63
2022-12-06T02:33:48.311Z,100644.78
2022-12-06T02:36:22.499Z,100636.03
2022-12-06T02:38:54.378Z,100651.78
2022-12-06T02:41:26.363Z,100645.63
2022-12-06T02:44:00.807Z,100642.16
2022-12-06T02:46:35.138Z,100650.06
2022-12-06T02:49:04.688Z,100640.34
2022-12-06T02:51:35.801Z,100642.06
2022-12-06T02:54:07.071Z,100628.88
2022-12-06T02:56:35.842Z,100628.81
2022-12-06T02:59:03.926Z,100628.72
2022-12-06T03:01:35.891Z,100628.88
2022-12-06T03:04:31.707Z,100626.97
2022-12-06T03:07:26.846Z,100623.53
2022-12-06T03:10:04.571Z,100625.41
2022-12-06T03:12:40.520Z,100633.22
2022-12-06T03:15:15.789Z,100627.16
2022-12-06T03:17:50.114Z,100628.13
2022-12-06T03:20:22.683Z,100630.69
2022-12-06T03:22:55.707Z,100627.28
2022-12-06T03:25:23.747Z,100621.13
2022-12-06T03:27:54.634Z,100614.84
2022-12-06T03:30:22.626Z,100624.53
2022-12-06T03:32:52.404Z,100622.84
2022-12-06T03:35:24.629Z,100623.84
2022-12-06T03:37:57.604Z,100622.13
2022-12-06T03:40:26.971Z,100621.22
2022-12-06T03:42:55.753Z,100623.09
2022-12-06T03:45:27.999Z,100625.84
2022-12-06T03:48:04.120Z,100623.38
2022-12-06T03:50:36.106Z,100620.19
2022-12-06T03:53:04.076Z,100616.72
2022-12-06T03:55:31.812Z,100615.00
2022-12-06T03:57:59.532Z,100608.09
2022-12-06T04:00:27.251Z,100618.56
2022-12-06T04:02:54.969Z,100612.44
2022-12-06T04:05:24.067Z,100609.81
2022-12-06T04:07:51.886Z,100609.81
2022-12-06T04:10:19.587Z,100600.97
2022-12-06T04:13:02.564Z,100601.72
2022-12-06T04:15:32.685Z,100603.66
2022-12-06T04:18:14.026Z,100597.84
2022-12-06T04:21:17.675Z,100596.00
2022-12-06T04:23:47.549Z,100600.44
2022-12-06T04:26:17.783Z,100602.28
2022-12-06T04:29:03.022Z,100596.25
2022-12-06T04:31:48.888Z,100592.72
2022-12-06T04:34:34.636Z,100586.84
2022-12-06T04:37:21.971Z,100588.63
2022-12-06T04:39:49.642Z,100589.72
2022-12-06T04:42:35.223Z,100588.84
2022-12-06T04:45:03.356Z,100584.44
2022-12-06T04:47:31.232Z,100592.50
2022-12-06T04:49:59.163Z,100583.69
2022-12-06T04:52:34.041Z,100590.69
2022-12-06T04:55:03.353Z,100588.06
2022-12-06T04:57:31.046Z,100588.16
2022-12-06T04:59:59.272Z,100583.75
2022-12-06T05:02:27.289Z,100587.16
2022-12-06T05:04:55.078Z,100579.38
2022-12-06T05:07:22.789Z,100577.63
2022-12-06T05:09:51.853Z,100584.66
2022-12-06T05:12:19.502Z,100576.75
2022-12-06T05:14:47.261Z,100575.84
2022-12-06T05:17:14.946Z,100576.75
2022-12-06T05:19:42.721Z,100579.44
2022-12-06T05:22:10.399Z,100576.91
2022-12-06T05:24:38.087Z,100577.69
2022-12-06T05:27:07.119Z,100582.91
2022-12-06T05:29:34.865Z,100586.44
2022-12-06T05:32:02.623Z,100586.50
2022-12-06T05:34:30.403Z,100583.03
2022-12-06T05:37:00.206Z,100582.03
2022-12-06T05:39:29.230Z,100582.09
2022-12-06T05:41:56.993Z,100578.47
2022-12-06T05:44:26.060Z,100583.69
2022-12-06T05:46:53.864Z,100584.59
2022-12-06T05:49:21.918Z,100583.81
2022-12-06T05:51:49.582Z,100583.75
2022-12-06T05:54:17.354Z,100591.78
2022-12-06T05:56:45.126Z,100590.63
2022-12-06T05:59:13.089Z,100594.34
2022-12-06T06:01:42.225Z,100587.53
2022-12-06T06:04:10.838Z,100593.66
2022-12-06T06:06:38.637Z,100603.34
2022-12-06T06:09:06.335Z,100602.50
2022-12-06T06:11:34.029Z,100606.88
2022-12-06T06:14:01.757Z,100608.53
2022-12-06T06:16:29.602Z,100603.28
2022-12-06T06:18:58.694Z,100609.31
2022-12-06T06:21:26.428Z,100597.00
2022-12-06T06:23:54.222Z,100611.00
2022-12-06T06:26:21.982Z,100603.97
2022-12-06T06:28:49.781Z,100612.81
2022-12-06T06:31:17.562Z,100603.16
2022-12-06T06:33:45.347Z,100606.75
2022-12-06T06:36:14.930Z,100597.91
2022-12-06T06:38:42.732Z,100600.63
2022-12-06T06:41:12.272Z,100603.09
2022-12-06T06:43:40.853Z,100599.63
2022-12-06T06:46:09.100Z,100597.13
2022-12-06T06:48:40.332Z,100595.25
2022-12-06T06:51:10.726Z,100604.13
2022-12-06T06:53:40.829Z,100603.28
2022-12-06T06:56:09.100Z,100604.97
2022-12-06T06:58:36.961Z,100603.34
2022-12-06T07:01:06.871Z,100600.69
2022-12-06T07:03:35.080Z,100602.41
2022-12-06T07:06:08.806Z,100604.13
2022-12-06T07:08:36.703Z,100600.63
2022-12-06T07:11:06.220Z,100612.03
2022-12-06T07:13:34.262Z,100607.84
2022-12-06T07:16:05.100Z,100605.13
2022-12-06T07:18:33.830Z,100604.25
2022-12-06T07:21:03.897Z,100615.66
2022-12-06T07:23:32.909Z,100609.63
2022-12-06T07:26:02.405Z,100611.38
2022-12-06T07:28:31.496Z,100606.81
2022-12-06T07:30:59.328Z,100610.41
2022-12-06T07:33:27.063Z,100614.72
2022-12-06T07:36:12.585Z,100619.16
2022-12-06T07:38:42.086Z,100622.56
2022-12-06T07:41:30.941Z,100609.38
2022-12-06T07:44:18.783Z,100611.97
2022-12-06T07:46:47.695Z,100611.06
2022-12-06T07:49:16.771Z,100620.72
2022-12-06T07:51:44.572Z,100621.56
2022-12-06T07:54:13.705Z,100613.66
2022-12-06T07:56:41.862Z,100617.22
2022-12-06T07:59:11.721Z,100624.13
2022-12-06T08:01:39.880Z,100610.72
2022-12-06T08:04:08.444Z,100618.47
2022-12-06T08:06:36.769Z,100615.84
2022-12-06T08:09:04.998Z,100616.56
2022-12-06T08:11:32.798Z,100621.81
2022-12-06T08:14:00.558Z,100625.22
2022-12-06T08:16:29.772Z,100617.22
2022-12-06T08:18:57.888Z,100619.78
2022-12-06T08:21:26.931Z,100619.78
2022-12-06T08:23:55.249Z,100607.50
2022-12-06T08:26:23.962Z,100608.94
2022-12-06T08:28:52.140Z,100612.44
2022-12-06T08:31:21.858Z,100608.72
2022-12-06T08:33:51.479Z,100613.00
2022-12-06T08:36:20.932Z,100604.00
2022-12-06T08:38:49.151Z,100604.53
2022-12-06T08:41:34.485Z,100606.94
2022-12-06T08:44:03.385Z,100612.75
2022-12-06T08:46:32.321Z,100608.25
2022-12-06T08:49:02.354Z,100613.28
2022-12-06T08:51:33.348Z,100612.28
2022-12-06T08:54:01.565Z,100609.34
2022-12-06T08:56:29.940Z,100616.28
2022-12-06T08:58:58.231Z,100613.66
2022-12-06T09:01:34.168Z,100618.00
2022-12-06T09:04:08.580Z,100611.47
2022-12-06T09:06:39.087Z,100613.19
2022-12-06T09:09:07.498Z,100620.84
2022-12-06T09:11:35.270Z,100618.28
2022-12-06T09:14:03.087Z,100615.13
2022-12-06T09:16:31.034Z,100619.56
2022-12-06T09:18:59.124Z,100618.53
2022-12-06T09:21:30.601Z,100617.44
2022-12-06T09:23:59.194Z,100619.00
2022-12-06T09:26:27.979Z,100619.38
2022-12-06T09:28:57.079Z,100621.84
2022-12-06T09:31:25.880Z,100620.13
2022-12-06T09:33:53.895Z,100626.19
2022-12-06T09:36:24.260Z,100629.44
2022-12-06T09:38:56.355Z,100629.44
2022-12-06T09:41:47.427Z,100629.34
2022-12-06T09:44:29.614Z,100636.50
2022-12-06T09:47:09.977Z,100631.06
2022-12-06T09:49:46.428Z,100630.28
2022-12-06T09:52:30.864Z,100627.66
2022-12-06T09:55:20.089Z,100632.09
2022-12-06T09:57:55.572Z,100634.31
2022-12-06T10:00:24.634Z,100632.53
2022-12-06T10:03:13.083Z,100624.69
2022-12-06T10:06:00.694Z,100626.13
2022-12-06T10:08:43.733Z,100629.28
2022-12-06T10:11:16.620Z,100634.66
2022-12-06T10:14:01.546Z,100621.13
2022-12-06T10:16:44.843Z,100625.56
2022-12-06T10:19:26.469Z,100616.44
2022-12-06T10:22:06.106Z,100619.84
2022-12-06T10:24:48.073Z,100619.16
2022-12-06T10:27:24.059Z,100625.00
2022-12-06T10:29:56.835Z,100623.78
2022-12-06T10:32:43.728Z,100621.56
2022-12-06T10:35:19.528Z,100621.56
2022-12-06T10:38:01.483Z,100620.56
2022-12-06T10:40:32.478Z,100625.50
2022-12-06T10:43:06.964Z,100624.53
2022-12-06T10:46:02.094Z,100620.38
2022-12-06T10:48:40.244Z,100624.72
2022-12-06T10:51:12.755Z,100622.78
2022-12-06T10:53:48.679Z,100616.47
2022-12-06T10:56:20.785Z,100621.13
2022-12-06T10:58:55.823Z,100607.00
2022-12-06T11:01:29.339Z,100623.78
2022-12-06T11:04:01.658Z,100622.16
2022-12-06T11:06:34.695Z,100621.41
2022-12-06T11:09:06.683Z,100629.66
2022-12-06T11:11:37.761Z,100628.06
2022-12-06T11:14:12.505Z,100630.50
2022-12-06T11:16:45.451Z,100630.59
2022-12-06T11:19:21.221Z,100626.00
2022-12-06T11:21:55.297Z,100623.34
2022-12-06T11:24:31.754Z,100623.28
2022-12-06T11:27:05.550Z,100617.16
2022-12-06T11:29:34.673Z,100617.72
2022-12-06T11:32:04.150Z,100612.72
2022-12-06T11:34:37.737Z,100617.66
2022-12-06T11:37:07.444Z,100614.09
2022-12-06T11:39:35.425Z,100612.09
2022-12-06T11:42:05.411Z,100617.84
2022-12-06T11:44:47.893Z,100613.91
2022-12-06T11:47:21.763Z,100610.50
2022-12-06T11:49:52.171Z,100608.59
2022-12-06T11:52:26.979Z,100603.66
2022-12-06T11:54:58.935Z,100612.53
2022-12-06T11:57:30.326Z,100605.25
2022-12-06T12:00:26.963Z,100601.50
2022-12-06T12:02:57.020Z,100600.41
2022-12-06T12:05:30.432Z,100603.81
2022-12-06T12:08:01.577Z,100588.28
2022-12-06T12:10:35.758Z,100596.31
2022-12-06T12:13:39.931Z,100594.53
2022-12-06T12:16:17.606Z,100589.84
2022-12-06T12:18:53.278Z,100596.78
2022-12-06T12:21:32.564Z,100588.06
2022-12-06T12:24:00.751Z,100582.59
2022-12-06T12:26:37.174Z,100580.63
2022-12-06T12:29:15.006Z,100583.34
2022-12-06T12:31:56.432Z,100577.97
2022-12-06T12:34:26.815Z,100586.88
2022-12-06T12:36:57.741Z,100583.34
2022-12-06T12:39:34.146Z,100589.69
2022-12-06T12:42:02.945Z,100591.47
2022-12-06T12:44:38.363Z,100588.84
2022-12-06T12:47:18.793Z,100590.44
2022-12-06T12:50:00.744Z,100585.47
2022-12-06T12:52:30.659Z,100593.41
2022-12-06T12:55:04.320Z,100583.69
2022-12-06T12:57:32.417Z,100586.19
2022-12-06T13:00:00.792Z,100593.41
2022-12-06T13:02:31.906Z,100589.16
2022-12-06T13:07:54.868Z,100581.81
2022-12-06T13:10:28.408Z,100587.28
2022-12-06T13:13:00.753Z,100580.16
2022-12-06T13:15:34.165Z,100579.28
2022-12-06T13:18:14.654Z,100572.25
2022-12-06T13:20:42.429Z,100570.47
2022-12-06T13:23:14.699Z,100573.91
2022-12-06T13:25:48.463Z,100574.06
2022-12-06T13:28:20.746Z,100576.69
2022-12-06T13:30:55.234Z,100570.53
2022-12-06T13:33:27.822Z,100566.97
2022-12-06T13:35:58.975Z,100570.53
2022-12-06T13:38:31.346Z,100567.13
2022-12-06T13:41:00.152Z,100561.34
2022-12-06T13:43:55.781Z,100564.97
2022-12-06T13:46:34.296Z,100568.53
2022-12-06T13:49:06.134Z,100572.97
2022-12-06T13:51:50.039Z,100571.09
2022-12-06T13:54:41.864Z,100577.38
2022-12-06T13:57:24.558Z,100580.91
2022-12-06T13:59:52.623Z,100579.09
2022-12-06T14:02:46.888Z,100580.22
2022-12-06T14:08:20.136Z,100577.56
2022-12-06T14:10:48.043Z,100579.53
2022-12-06T14:13:21.138Z,100578.78
2022-12-06T14:15:51.542Z,100577.09
2022-12-06T14:18:22.806Z,100577.94
2022-12-06T14:20:53.351Z,100572.91
2022-12-06T14:23:31.166Z,100578.34
2022-12-06T14:26:16.971Z,100579.41
2022-12-06T14:28:45.126Z,100580.31
2022-12-06T14:31:21.304Z,100580.50
2022-12-06T14:33:49.528Z,100582.28
2022-12-06T14:36:24.071Z,100575.31
2022-12-06T14:38:58.345Z,100574.53
2022-12-06T14:41:49.406Z,100576.41
2022-12-06T14:44:18.339Z,100573.78
2022-12-06T14:46:48.204Z,100574.69
2022-12-06T14:49:37.880Z,100574.97
2022-12-06T14:52:18.762Z,100579.31
2022-12-06T14:54:48.485Z,100571.41
2022-12-06T14:57:27.759Z,100570.38
2022-12-06T15:00:18.019Z,100567.72
2022-12-06T15:03:29.102Z,100566.69
2022-12-06T15:06:16.576Z,100571.13
2022-12-06T15:08:49.149Z,100573.69
2022-12-06T15:11:50.845Z,100567.28
2022-12-06T15:14:22.005Z,100562.25
2022-12-06T15:16:59.865Z,100562.59
2022-12-06T15:19:28.487Z,100561.75
2022-12-06T15:21:56.439Z,100566.19
2022-12-06T15:24:25.796Z,100568.91
2022-12-06T15:26:55.348Z,100571.56
2022-12-06T15:29:23.317Z,100562.78
2022-12-06T15:31:53.384Z,100574.34
2022-12-06T15:34:27.633Z,100568.22
2022-12-06T15:37:22.349Z,100567.38
2022-12-06T15:39:45.070Z,100574.13
2022-12-06T15:42:19.137Z,100571.56
2022-12-06T15:45:00.682Z,100580.50
2022-12-06T15:47:28.536Z,100570.28
2022-12-06T15:49:58.295Z,100566.69
2022-12-06T15:52:27.488Z,100566.88
2022-12-06T15:54:55.181Z,100574.38
2022-12-06T15:57:24.420Z,100571.97
2022-12-06T15:59:52.218Z,100571.03
2022-12-06T16:02:20.576Z,100571.28
2022-12-06T16:04:51.004Z,100576.56
2022-12-06T16:07:19.702Z,100579.31
2022-12-06T16:09:48.001Z,100573.34
2022-12-06T16:12:16.018Z,100574.38
2022-12-06T16:14:45.181Z,100574.44
2022-12-06T16:17:12.998Z,100577.22
2022-12-06T16:19:58.173Z,100579.88
2022-12-06T16:22:45.925Z,100582.69
2022-12-06T16:25:12.731Z,100587.22
2022-12-06T16:27:40.474Z,100591.72
2022-12-06T16:30:10.742Z,100578.66
2022-12-06T16:32:38.498Z,100581.31
2022-12-06T16:35:06.545Z,100585.66
2022-12-06T16:37:34.265Z,100588.38
2022-12-06T16:40:02.097Z,100578.66
2022-12-06T16:42:29.965Z,100575.34
2022-12-06T16:44:57.798Z,100576.28
2022-12-06T16:49:53.478Z,100573.72
2022-12-06T16:52:22.661Z,100571.16
2022-12-06T16:54:50.397Z,100566.06
2022-12-06T16:57:19.559Z,100564.34
2022-12-06T16:59:47.411Z,100573.53
2022-12-06T17:02:27.503Z,100568.66
2022-12-06T17:04:56.143Z,100566.94
2022-12-06T17:07:24.423Z,100567.19
2022-12-06T17:09:52.199Z,100565.47
2022-12-06T17:12:20.290Z,100568.72
2022-12-06T17:14:48.164Z,100564.28
2022-12-06T17:17:17.519Z,100563.31
2022-12-06T17:19:46.931Z,100564.16
2022-12-06T17:22:17.288Z,100572.91
2022-12-06T17:24:45.391Z,100568.41
2022-12-06T17:27:14.911Z,100580.69
2022-12-06T17:29:43.543Z,100579.91
2022-12-06T17:32:11.895Z,100580.06
2022-12-06T17:34:39.683Z,100566.88
2022-12-06T17:37:08.832Z,100575.81
2022-12-06T17:39:36.932Z,100568.88
2022-12-06T17:42:22.764Z,100567.25
2022-12-06T17:44:51.192Z,100567.25
2022-12-06T17:47:19.134Z,100569.97
2022-12-06T17:49:47.008Z,100574.41
2022-12-06T17:52:16.309Z,100570.84
2022-12-06T17:54:44.174Z,100582.06
2022-12-06T17:57:16.283Z,100579.34
2022-12-06T17:59:45.041Z,100576.66
2022-12-06T18:02:16.160Z,100574.78
2022-12-06T18:04:45.254Z,100583.53
2022-12-06T18:07:13.575Z,100580.81
2022-12-06T18:09:42.681Z,100586.94
2022-12-06T18:12:11.220Z,100585.97
2022-12-06T18:14:38.965Z,100585.97
2022-12-06T18:17:06.819Z,100592.00
2022-12-06T18:19:35.038Z,100587.72
2022-12-06T18:22:03.043Z,100586.94
2022-12-06T18:24:35.355Z,100588.75
2022-12-06T18:27:05.550Z,100584.31
2022-12-06T18:29:33.710Z,100586.09
2022-12-06T18:32:01.606Z,100586.88
2022-12-06T18:34:29.544Z,100594.03
2022-12-06T18:36:57.380Z,100583.47
2022-12-06T18:39:25.402Z,100593.19
2022-12-06T18:41:54.261Z,100600.06
2022-12-06T18:44:23.987Z,100589.50
2022-12-06T18:46:51.813Z,100594.78
2022-12-06T18:49:19.825Z,100595.19
2022-12-06T18:51:47.614Z,100595.25
2022-12-06T18:54:15.372Z,100593.50
2022-12-06T18:56:43.567Z,100595.13
2022-12-06T18:59:12.760Z,100600.31
2022-12-06T19:01:42.046Z,100590.59
2022-12-06T19:04:14.789Z,100591.47
2022-12-06T19:06:44.386Z,100592.31
2022-12-06T19:09:14.733Z,100595.88
2022-12-06T19:11:44.415Z,100602.97
2022-12-06T19:14:12.288Z,100594.16
2022-12-06T19:16:43.630Z,100593.25
2022-12-06T19:19:16.469Z,100587.97
2022-12-06T19:21:45.607Z,100595.97
2022-12-06T19:24:15.663Z,100594.28
2022-12-06T19:26:43.962Z,100586.44
2022-12-06T19:29:11.792Z,100591.72
2022-12-06T19:31:41.050Z,100580.44
2022-12-06T19:34:15.399Z,100582.25
2022-12-06T19:36:43.326Z,100587.91
2022-12-06T19:39:13.772Z,100576.59
2022-12-06T19:41:56.070Z,100588.00
2022-12-06T19:44:24.113Z,100586.31
2022-12-06T19:46:53.835Z,100582.72
2022-12-06T19:49:23.106Z,100580.84
2022-12-06T19:51:52.048Z,100584.38
2022-12-06T19:54:22.287Z,100578.97
2022-12-06T19:56:51.211Z,100582.50
2022-12-06T19:59:19.439Z,100585.13
2022-12-06T20:01:48.809Z,100592.09
2022-12-06T20:04:19.900Z,100583.34
2022-12-06T20:06:48.089Z,100586.06
2022-12-06T20:09:16.488Z,100587.00
2022-12-06T20:12:03.517Z,100584.38
2022-12-06T20:14:36.096Z,100592.28
2022-12-06T20:17:05.487Z,100584.44
2022-12-06T20:19:34.965Z,100592.41
2022-12-06T20:22:02.812Z,100591.41
2022-12-06T20:24:31.123Z,100593.34
2022-12-06T20:26:58.865Z,100589.78
2022-12-06T20:29:29.873Z,100596.91
2022-12-06T20:31:59.500Z,100599.31
2022-12-06T20:34:29.370Z,100596.69
2022-12-06T20:36:58.562Z,100598.72
2022-12-06T20:39:28.616Z,100598.00
2022-12-06T20:41:56.801Z,100594.59
2022-12-06T20:44:24.784Z,100596.53
2022-12-06T20:46:53.439Z,100597.47
2022-12-06T20:49:21.324Z,100598.31
2022-12-06T20:51:52.975Z,100603.59
2022-12-06T20:54:23.151Z,100601.22
2022-12-06T20:56:53.292Z,100601.97
2022-12-06T20:59:21.993Z,100599.41
2022-12-06T21:01:50.253Z,100594.06
2022-12-06T21:04:18.363Z,100590.41
2022-12-06T21:06:46.166Z,100590.41
2022-12-06T21:09:14.330Z,100597.47
2022-12-06T21:11:43.509Z,100591.50
2022-12-06T21:14:13.382Z,100583.59
2022-12-06T21:16:42.749Z,100581.03
2022-12-06T21:19:13.815Z,100583.75
2022-12-06T21:21:44.907Z,100583.81
2022-12-06T21:24:16.275Z,100586.44
2022-12-06T21:26:45.448Z,100582.06
2022-12-06T21:29:16.930Z,100585.59
2022-12-06T21:31:45.056Z,100582.25
2022-12-06T21:34:13.297Z,100580.50
2022-12-06T21:36:41.329Z,100584.13
2022-12-06T21:39:09.580Z,100594.78
2022-12-06T21:41:37.305Z,100589.50
2022-12-06T21:44:06.727Z,100587.00
2022-12-06T21:46:34.555Z,100593.13
2022-12-06T21:49:02.409Z,100590.59
2022-12-06T21:51:32.248Z,100586.16
2022-12-06T21:54:00.187Z,100594.19
2022-12-06T21:56:29.445Z,100592.50
2022-12-06T21:58:59.985Z,100597.94
2022-12-06T22:01:32.692Z,100598.00
2022-12-06T22:04:03.060Z,100597.38
2022-12-06T22:06:31.502Z,100593.97
2022-12-06T22:09:01.355Z,100595.59
2022-12-06T22:11:30.885Z,100597.38
2022-12-06T22:13:59.782Z,100592.06
2022-12-06T22:16:28.355Z,100594.59
2022-12-06T22:18:58.094Z,100595.47
2022-12-06T22:21:27.925Z,100598.16
2022-12-06T22:23:58.062Z,100601.72
2022-12-06T22:26:28.376Z,100600.94
2022-12-06T22:28:57.042Z,100593.13
2022-12-06T22:31:27.545Z,100602.72
2022-12-06T22:33:58.041Z,100596.53
2022-12-06T22:36:26.323Z,100595.59
2022-12-06T22:38:55.699Z,100593.81
2022-12-06T22:41:24.439Z,100588.53
2022-12-06T22:43:53.636Z,100586.69
2022-12-06T22:46:22.458Z,100593.66
2022-12-06T22:48:50.992Z,100592.72
2022-12-06T22:51:23.094Z,100595.38
2022-12-06T22:53:57.243Z,100591.09
2022-12-06T22:56:26.334Z,100588.47
2022-12-06T22:58:54.593Z,100588.63
2022-12-06T23:01:24.696Z,100582.59
2022-12-06T23:03:54.427Z,100584.34
2022-12-06T23:06:26.656Z,100571.09
2022-12-06T23:08:55.529Z,100576.53
2022-12-06T23:11:26.747Z,100580.09
2022-12-06T23:13:55.936Z,100582.03
2022-12-06T23:16:26.604Z,100584.81
2022-12-06T23:18:54.713Z,100581.47
2022-12-06T23:21:26.006Z,100577.22
2022-12-06T23:23:55.738Z,100584.25
2022-12-06T23:26:26.308Z,100583.47
2022-12-06T23:28:54.589Z,100574.78
2022-12-06T23:31:24.303Z,100588.06
2022-12-06T23:33:55.020Z,100582.81
2022-12-06T23:36:25.890Z,100581.84
2022-12-06T23:38:54.292Z,100581.84
2022-12-06T23:41:25.599Z,100574.78
2022-12-06T23:43:55.391Z,100573.88
2022-12-06T23:46:26.184Z,100572.88
2022-12-06T23:48:54.292Z,100574.59
2022-12-06T23:51:25.124Z,100571.78
2022-12-06T23:53:54.876Z,100576.16
2022-12-06T23:56:23.295Z,100572.81
2022-12-06T23:58:52.611Z,100568.31
